createdAt,value
2022-11-03T00:01:35.019Z,77.19
2022-11-03T00:04:02.870Z,77.07
2022-11-03T00:06:30.515Z,76.82
2022-11-03T00:09:00.861Z,76.96
2022-11-03T00:11:28.739Z,76.76
2022-11-03T00:13:56.385Z,76.64
2022-11-03T00:16:24.014Z,76.76
2022-11-03T00:18:52.246Z,76.87
2022-11-03T00:21:20.237Z,76.81
2022-11-03T00:23:47.994Z,76.75
2022-11-03T00:26:18.285Z,76.66
2022-11-03T00:28:46.876Z,76.65
2022-11-03T00:31:16.317Z,76.56
2022-11-03T00:33:44.535Z,76.57
2022-11-03T00:36:15.116Z,76.62
2022-11-03T00:38:43.414Z,76.45
2022-11-03T00:41:11.723Z,76.48
2022-11-03T00:43:42.182Z,76.65
2022-11-03T00:46:10.564Z,76.40
2022-11-03T00:48:38.885Z,76.47
2022-11-03T00:51:09.266Z,76.57
2022-11-03T00:53:38.158Z,76.48
2022-11-03T00:56:07.087Z,76.42
2022-11-03T00:58:34.976Z,76.72
2022-11-03T01:01:05.876Z,76.66
2022-11-03T01:03:34.554Z,76.57
2022-11-03T01:06:20.195Z,76.51
2022-11-03T01:08:48.238Z,76.27
2022-11-03T01:11:35.734Z,76.28
2022-11-03T01:14:03.856Z,76.06
2022-11-03T01:16:33.439Z,76.06
2022-11-03T01:19:01.383Z,76.03
2022-11-03T01:21:29.318Z,75.99
2022-11-03T01:23:57.033Z,76.06
2022-11-03T01:26:24.682Z,76.09
2022-11-03T01:28:52.479Z,75.83
2022-11-03T01:31:21.599Z,75.99
2022-11-03T01:33:52.691Z,76.08
2022-11-03T01:36:20.804Z,76.28
2022-11-03T01:38:48.943Z,76.59
2022-11-03T01:41:18.750Z,76.52
2022-11-03T01:43:48.617Z,76.39
2022-11-03T01:46:18.586Z,76.94
2022-11-03T01:48:49.645Z,76.89
2022-11-03T01:51:22.272Z,77.02
2022-11-03T01:53:51.898Z,77.29
2022-11-03T01:56:20.771Z,77.24
2022-11-03T01:58:50.189Z,76.99
2022-11-03T02:01:18.115Z,77.12
2022-11-03T02:03:49.238Z,76.92
2022-11-03T02:06:20.012Z,76.61
2022-11-03T02:08:50.393Z,76.54
2022-11-03T02:11:32.027Z,76.61
2022-11-03T02:13:59.765Z,76.41
2022-11-03T02:16:28.088Z,76.34
2022-11-03T02:18:56.698Z,76.35
2022-11-03T02:21:29.198Z,76.33
2022-11-03T02:24:01.392Z,76.43
2022-11-03T02:26:30.266Z,76.10
2022-11-03T02:28:57.988Z,76.02
2022-11-03T02:31:30.637Z,76.15
2022-11-03T02:34:01.150Z,76.11
2022-11-03T02:36:31.693Z,76.09
2022-11-03T02:39:02.239Z,76.23
2022-11-03T02:41:33.038Z,76.54
2022-11-03T02:44:01.306Z,76.50
2022-11-03T02:46:29.903Z,76.15
2022-11-03T02:48:57.784Z,76.51
2022-11-03T02:51:26.017Z,76.63
2022-11-03T02:54:01.201Z,77.12
2022-11-03T02:56:32.799Z,77.26
2022-11-03T02:59:02.895Z,77.53
2022-11-03T03:01:37.151Z,77.83
2022-11-03T03:04:07.461Z,77.75
2022-11-03T03:06:38.141Z,77.75
2022-11-03T03:09:08.493Z,77.32
2022-11-03T03:11:38.916Z,77.75
2022-11-03T03:14:11.447Z,78.05
2022-11-03T03:16:44.861Z,77.77
2022-11-03T03:19:29.961Z,77.94
2022-11-03T03:21:59.438Z,78.25
2022-11-03T03:24:32.588Z,78.33
2022-11-03T03:27:02.974Z,78.73
2022-11-03T03:29:34.844Z,79.39
2022-11-03T03:32:05.137Z,79.06
2022-11-03T03:34:36.074Z,79.33
2022-11-03T03:37:06.049Z,79.34
2022-11-03T03:39:36.796Z,79.46
2022-11-03T03:42:07.206Z,79.36
2022-11-03T03:44:35.605Z,79.27
2022-11-03T03:47:06.970Z,79.60
2022-11-03T03:49:34.619Z,79.70
2022-11-03T03:52:03.717Z,79.31
2022-11-03T03:54:31.377Z,79.35
2022-11-03T03:57:02.637Z,79.30
2022-11-03T03:59:31.762Z,79.39
2022-11-03T04:02:00.155Z,79.49
2022-11-03T04:04:27.942Z,79.63
2022-11-03T04:07:22.108Z,79.38
2022-11-03T04:09:49.834Z,79.81
2022-11-03T04:12:35.143Z,79.97
2022-11-03T04:15:22.210Z,80.44
2022-11-03T04:18:07.934Z,80.29
2022-11-03T04:20:53.481Z,79.69
2022-11-03T04:23:21.337Z,80.16
2022-11-03T04:25:51.366Z,79.89
2022-11-03T04:28:19.142Z,79.93
2022-11-03T04:30:58.898Z,80.36
2022-11-03T04:33:27.400Z,80.70
2022-11-03T04:35:56.780Z,81.14
2022-11-03T04:38:25.249Z,80.75
2022-11-03T04:40:55.536Z,80.80
2022-11-03T04:43:24.945Z,80.74
2022-11-03T04:45:54.262Z,81.70
2022-11-03T04:48:23.606Z,81.98
2022-11-03T04:50:54.110Z,82.11
2022-11-03T04:53:23.447Z,82.57
2022-11-03T04:55:53.022Z,82.85
2022-11-03T04:58:22.943Z,82.67
2022-11-03T05:00:52.010Z,83.05
2022-11-03T05:03:34.386Z,83.40
2022-11-03T05:06:03.716Z,83.31
2022-11-03T05:08:32.431Z,83.16
2022-11-03T05:11:00.942Z,82.47
2022-11-03T05:13:29.978Z,82.42
2022-11-03T05:16:02.418Z,82.54
2022-11-03T05:18:34.198Z,82.23
2022-11-03T05:21:04.617Z,82.61
2022-11-03T05:23:36.745Z,82.83
2022-11-03T05:26:04.682Z,83.47
2022-11-03T05:28:35.600Z,83.39
2022-11-03T05:31:03.778Z,82.78
2022-11-03T05:33:36.130Z,82.74
2022-11-03T05:36:05.930Z,82.72
2022-11-03T05:38:34.498Z,82.36
2022-11-03T05:41:02.874Z,82.60
2022-11-03T05:43:30.875Z,82.53
2022-11-03T05:45:59.923Z,81.99
2022-11-03T05:48:34.096Z,82.19
2022-11-03T05:51:02.549Z,81.87
2022-11-03T05:53:32.159Z,82.60
2022-11-03T05:56:03.531Z,82.54
2022-11-03T05:58:34.973Z,82.84
2022-11-03T06:01:06.517Z,82.62
2022-11-03T06:03:37.374Z,82.74
2022-11-03T06:06:14.703Z,82.25
2022-11-03T06:08:45.011Z,82.09
2022-11-03T06:11:24.485Z,82.53
2022-11-03T06:13:52.393Z,82.83
2022-11-03T06:16:33.826Z,82.65
2022-11-03T06:19:03.183Z,83.16
2022-11-03T06:21:32.576Z,82.66
2022-11-03T06:24:00.441Z,83.25
2022-11-03T06:26:29.811Z,82.96
2022-11-03T06:28:57.609Z,82.79
2022-11-03T06:31:28.441Z,82.86
2022-11-03T06:33:56.915Z,82.54
2022-11-03T06:36:27.795Z,82.50
2022-11-03T06:38:57.146Z,82.89
2022-11-03T06:41:27.235Z,82.97
2022-11-03T06:43:55.313Z,82.96
2022-11-03T06:46:24.801Z,82.54
2022-11-03T06:48:53.684Z,82.62
2022-11-03T06:51:22.890Z,82.48
2022-11-03T06:53:52.945Z,82.06
2022-11-03T06:56:22.987Z,81.76
2022-11-03T06:58:52.361Z,80.93
2022-11-03T07:01:22.878Z,79.43
2022-11-03T07:03:52.235Z,72.59
2022-11-03T07:06:24.578Z,66.73
2022-11-03T07:08:55.013Z,59.84
2022-11-03T07:11:24.519Z,57.51
2022-11-03T07:13:54.135Z,54.02
2022-11-03T07:16:33.585Z,51.81
2022-11-03T07:19:02.480Z,50.93
2022-11-03T07:21:36.485Z,48.70
2022-11-03T07:24:15.668Z,46.21
2022-11-03T07:26:43.402Z,42.65
2022-11-03T07:29:14.529Z,40.16
2022-11-03T07:31:42.424Z,39.28
2022-11-03T07:34:12.671Z,37.90
2022-11-03T07:36:40.716Z,37.90
2022-11-03T07:39:15.274Z,36.74
2022-11-03T07:41:43.178Z,36.01
2022-11-03T07:44:15.676Z,35.82
2022-11-03T07:46:43.861Z,36.08
2022-11-03T07:49:22.991Z,39.81
2022-11-03T07:51:51.142Z,43.24
2022-11-03T07:54:23.509Z,46.08
2022-11-03T07:56:54.769Z,48.43
2022-11-03T08:01:57.411Z,51.12
2022-11-03T08:04:27.438Z,52.96
2022-11-03T08:06:55.138Z,52.38
2022-11-03T08:09:24.259Z,52.55
2022-11-03T08:11:52.430Z,52.50
2022-11-03T08:14:20.193Z,53.84
2022-11-03T08:16:47.904Z,54.38
2022-11-03T08:19:15.767Z,53.14
2022-11-03T08:21:43.389Z,53.22
2022-11-03T08:24:11.031Z,53.65
2022-11-03T08:26:40.257Z,53.93
2022-11-03T08:29:07.954Z,53.97
2022-11-03T08:31:35.591Z,53.97
2022-11-03T08:34:03.393Z,54.40
2022-11-03T08:36:32.746Z,52.69
2022-11-03T08:39:00.936Z,52.98
2022-11-03T08:41:28.565Z,51.92
2022-11-03T08:43:57.614Z,51.73
2022-11-03T08:46:25.560Z,51.06
2022-11-03T08:48:53.312Z,50.21
2022-11-03T08:51:20.974Z,50.03
2022-11-03T08:53:50.819Z,49.19
2022-11-03T08:56:21.920Z,48.71
2022-11-03T08:58:49.949Z,47.85
2022-11-03T09:01:19.072Z,47.70
2022-11-03T09:03:48.074Z,48.07
2022-11-03T09:06:15.912Z,47.26
2022-11-03T09:11:31.285Z,47.09
2022-11-03T09:13:59.107Z,46.70
2022-11-03T09:16:28.249Z,46.92
2022-11-03T09:18:55.887Z,47.48
2022-11-03T09:21:23.644Z,46.90
2022-11-03T09:23:51.320Z,46.57
2022-11-03T09:26:18.997Z,46.98
2022-11-03T09:28:46.895Z,46.04
2022-11-03T09:31:14.525Z,46.23
2022-11-03T09:33:43.538Z,45.33
2022-11-03T09:36:11.422Z,46.49
2022-11-03T09:38:39.189Z,46.99
2022-11-03T09:41:18.666Z,46.86
2022-11-03T09:43:57.517Z,47.21
2022-11-03T09:46:26.155Z,47.00
2022-11-03T09:48:55.481Z,46.92
2022-11-03T09:51:23.902Z,46.44
2022-11-03T09:53:51.556Z,47.18
2022-11-03T09:56:21.063Z,46.29
2022-11-03T09:58:54.076Z,46.47
2022-11-03T10:01:22.636Z,45.71
2022-11-03T10:03:50.554Z,45.06
2022-11-03T10:06:21.342Z,44.60
2022-11-03T10:08:49.530Z,44.42
2022-11-03T10:11:17.221Z,43.75
2022-11-03T10:13:47.941Z,42.18
2022-11-03T10:16:17.207Z,42.90
2022-11-03T10:18:45.223Z,42.16
2022-11-03T10:21:17.363Z,42.85
2022-11-03T10:23:46.475Z,42.68
2022-11-03T10:26:16.468Z,42.44
2022-11-03T10:28:58.847Z,42.60
2022-11-03T10:31:33.363Z,42.49
2022-11-03T10:34:01.449Z,42.45
2022-11-03T10:36:31.010Z,42.45
2022-11-03T10:39:01.714Z,41.70
2022-11-03T10:41:31.098Z,41.65
2022-11-03T10:44:08.193Z,42.47
2022-11-03T10:46:50.140Z,42.46
2022-11-03T10:49:19.951Z,43.57
2022-11-03T10:51:50.066Z,42.45
2022-11-03T10:54:20.544Z,41.69
2022-11-03T10:56:48.629Z,40.79
2022-11-03T10:59:18.988Z,40.67
2022-11-03T11:01:46.847Z,40.57
2022-11-03T11:04:16.766Z,40.09
2022-11-03T11:06:45.085Z,39.32
2022-11-03T11:09:14.572Z,40.02
2022-11-03T11:11:59.997Z,39.84
2022-11-03T11:14:37.984Z,39.57
2022-11-03T11:17:06.291Z,38.26
2022-11-03T11:20:07.705Z,38.83
2022-11-03T11:22:35.398Z,39.36
2022-11-03T11:25:04.031Z,38.02
2022-11-03T11:27:59.105Z,37.54
2022-11-03T11:31:03.237Z,38.38
2022-11-03T11:33:33.197Z,38.94
2022-11-03T11:36:06.560Z,37.96
2022-11-03T11:39:07.229Z,37.53
2022-11-03T11:42:06.719Z,37.15
2022-11-03T11:44:47.992Z,36.91
2022-11-03T11:47:33.632Z,35.79
2022-11-03T11:50:25.617Z,36.38
2022-11-03T11:52:58.772Z,36.91
2022-11-03T11:55:54.232Z,36.06
2022-11-03T11:58:24.847Z,36.23
2022-11-03T12:01:00.234Z,36.25
2022-11-03T12:03:32.572Z,35.82
2022-11-03T12:06:00.482Z,33.39
2022-11-03T12:08:30.847Z,32.75
2022-11-03T12:11:00.311Z,32.57
2022-11-03T12:13:47.197Z,32.50
2022-11-03T12:16:36.995Z,31.71
2022-11-03T12:19:39.807Z,30.32
2022-11-03T12:22:09.541Z,29.62
2022-11-03T12:24:49.549Z,29.72
2022-11-03T12:27:41.977Z,31.04
2022-11-03T12:30:20.348Z,30.65
2022-11-03T12:32:49.679Z,30.03
2022-11-03T12:35:17.665Z,29.10
2022-11-03T12:37:45.981Z,28.28
2022-11-03T12:40:14.875Z,29.89
2022-11-03T12:42:42.926Z,30.42
2022-11-03T12:45:13.643Z,30.01
2022-11-03T12:47:41.728Z,30.03
2022-11-03T12:50:11.194Z,30.08
2022-11-03T12:52:39.103Z,29.51
2022-11-03T12:55:07.241Z,31.60
2022-11-03T12:57:34.919Z,32.17
2022-11-03T13:00:02.592Z,33.46
2022-11-03T13:02:31.692Z,33.17
2022-11-03T13:04:59.497Z,33.11
2022-11-03T13:07:34.364Z,32.33
2022-11-03T13:10:04.798Z,32.67
2022-11-03T13:12:32.517Z,32.92
2022-11-03T13:15:00.785Z,33.25
2022-11-03T13:17:35.750Z,33.58
2022-11-03T13:20:16.237Z,34.55
2022-11-03T13:22:45.338Z,34.18
2022-11-03T13:25:12.997Z,34.83
2022-11-03T13:27:40.738Z,33.98
2022-11-03T13:30:09.833Z,34.01
2022-11-03T13:32:37.498Z,35.08
2022-11-03T13:35:10.862Z,36.09
2022-11-03T13:37:41.100Z,37.22
2022-11-03T13:40:29.426Z,37.87
2022-11-03T13:43:00.114Z,38.14
2022-11-03T13:45:28.003Z,37.46
2022-11-03T13:50:43.412Z,38.03
2022-11-03T13:56:05.247Z,38.25
2022-11-03T14:01:24.115Z,38.60
2022-11-03T14:06:40.538Z,39.32
2022-11-03T14:09:08.273Z,39.69
2022-11-03T14:11:55.022Z,40.34
2022-11-03T14:14:22.787Z,40.57
2022-11-03T14:16:50.507Z,41.03
2022-11-03T14:19:18.279Z,41.25
2022-11-03T14:21:46.103Z,41.62
2022-11-03T14:24:13.792Z,41.91
2022-11-03T14:26:43.480Z,42.50
2022-11-03T14:29:11.442Z,42.56
2022-11-03T14:31:39.070Z,43.05
2022-11-03T14:34:06.789Z,43.26
2022-11-03T14:36:35.127Z,43.75
2022-11-03T14:39:02.777Z,44.20
2022-11-03T14:41:52.249Z,44.28
2022-11-03T14:44:22.683Z,44.53
2022-11-03T14:46:50.599Z,44.85
2022-11-03T14:49:20.286Z,45.17
2022-11-03T14:51:48.104Z,45.13
2022-11-03T14:54:15.774Z,45.47
2022-11-03T14:56:43.649Z,45.63
2022-11-03T14:59:11.340Z,45.77
2022-11-03T15:01:40.466Z,46.53
2022-11-03T15:04:08.908Z,47.35
2022-11-03T15:06:37.160Z,47.51
2022-11-03T15:09:05.523Z,47.67
2022-11-03T15:11:33.670Z,48.14
2022-11-03T15:14:02.354Z,48.39
2022-11-03T15:16:30.124Z,48.72
2022-11-03T15:18:59.633Z,49.11
2022-11-03T15:21:28.094Z,49.03
2022-11-03T15:26:43.475Z,49.10
2022-11-03T15:29:11.314Z,49.15
2022-11-03T15:31:44.502Z,49.34
2022-11-03T15:34:16.803Z,50.21
2022-11-03T15:36:44.614Z,50.90
2022-11-03T15:39:13.170Z,50.50
2022-11-03T15:41:40.928Z,50.15
2022-11-03T15:44:08.985Z,50.55
2022-11-03T15:46:37.532Z,50.44
2022-11-03T15:49:05.601Z,50.44
2022-11-03T15:51:34.941Z,50.69
2022-11-03T15:54:03.242Z,51.48
2022-11-03T15:56:31.304Z,52.11
2022-11-03T15:58:58.927Z,52.66
2022-11-03T16:01:27.034Z,54.01
2022-11-03T16:03:55.032Z,53.75
2022-11-03T16:06:40.212Z,53.53
2022-11-03T16:09:24.985Z,54.16
2022-11-03T16:11:53.638Z,54.09
2022-11-03T16:14:21.347Z,54.42
2022-11-03T16:16:49.124Z,53.82
2022-11-03T16:19:16.786Z,53.90
2022-11-03T16:21:44.458Z,53.62
2022-11-03T16:24:13.512Z,55.02
2022-11-03T16:26:41.395Z,55.69
2022-11-03T16:29:09.283Z,55.95
2022-11-03T16:31:37.283Z,55.88
2022-11-03T16:34:06.146Z,56.25
2022-11-03T16:36:33.964Z,55.49
2022-11-03T16:39:01.919Z,56.55
2022-11-03T16:41:31.921Z,57.00
2022-11-03T16:43:59.546Z,57.22
2022-11-03T16:46:27.437Z,57.34
2022-11-03T16:48:56.386Z,57.96
2022-11-03T16:51:24.082Z,58.49
2022-11-03T16:53:52.854Z,58.75
2022-11-03T16:56:20.516Z,59.60
2022-11-03T16:58:49.537Z,60.31
2022-11-03T17:01:18.338Z,60.91
2022-11-03T17:03:46.110Z,61.44
2022-11-03T17:06:13.724Z,61.67
2022-11-03T17:08:56.970Z,61.85
2022-11-03T17:11:37.316Z,62.31
2022-11-03T17:14:08.728Z,62.60
2022-11-03T17:16:36.638Z,62.87
2022-11-03T17:19:04.585Z,63.15
2022-11-03T17:21:34.162Z,63.54
2022-11-03T17:24:01.831Z,63.71
2022-11-03T17:26:40.333Z,64.18
2022-11-03T17:29:13.214Z,64.13
2022-11-03T17:31:40.938Z,64.66
2022-11-03T17:34:09.862Z,64.90
2022-11-03T17:36:37.521Z,65.08
2022-11-03T17:39:05.352Z,65.13
2022-11-03T17:41:38.829Z,65.80
2022-11-03T17:44:12.061Z,65.93
2022-11-03T17:46:40.182Z,65.96
2022-11-03T17:49:08.525Z,66.35
2022-11-03T17:51:37.121Z,66.45
2022-11-03T17:54:08.084Z,66.77
2022-11-03T17:56:36.431Z,66.78
2022-11-03T17:59:04.556Z,66.63
2022-11-03T18:01:33.689Z,66.71
2022-11-03T18:04:02.885Z,66.61
2022-11-03T18:06:30.676Z,66.46
2022-11-03T18:08:59.341Z,66.36
2022-11-03T18:11:47.074Z,66.44
2022-11-03T18:14:14.841Z,66.56
2022-11-03T18:16:43.825Z,66.63
2022-11-03T18:19:13.015Z,66.86
2022-11-03T18:21:41.027Z,66.94
2022-11-03T18:24:12.312Z,66.98
2022-11-03T18:26:40.560Z,67.34
2022-11-03T18:29:08.870Z,67.57
2022-11-03T18:31:38.851Z,67.60
2022-11-03T18:34:13.288Z,67.57
2022-11-03T18:36:41.061Z,67.41
2022-11-03T18:39:09.140Z,67.43
2022-11-03T18:41:44.126Z,67.25
2022-11-03T18:44:16.399Z,66.98
2022-11-03T18:46:44.569Z,66.78
2022-11-03T18:49:14.866Z,66.75
2022-11-03T18:51:46.329Z,66.48
2022-11-03T18:54:15.651Z,66.32
2022-11-03T18:56:43.553Z,66.12
2022-11-03T18:59:20.664Z,66.07
2022-11-03T19:01:48.629Z,66.26
2022-11-03T19:04:18.066Z,66.21
2022-11-03T19:06:47.011Z,66.14
2022-11-03T19:09:16.984Z,66.12
2022-11-03T19:11:45.138Z,66.14
2022-11-03T19:14:20.603Z,66.03
2022-11-03T19:19:50.657Z,66.03
2022-11-03T19:22:20.231Z,66.10
2022-11-03T19:24:48.307Z,66.38
2022-11-03T19:27:18.249Z,66.33
2022-11-03T19:29:47.127Z,66.22
2022-11-03T19:32:18.912Z,66.26
2022-11-03T19:34:49.544Z,66.15
2022-11-03T19:37:17.387Z,65.98
2022-11-03T19:39:45.657Z,66.21
2022-11-03T19:42:33.067Z,66.11
2022-11-03T19:45:02.346Z,66.26
2022-11-03T19:47:34.664Z,66.28
2022-11-03T19:50:07.357Z,66.35
2022-11-03T19:52:36.291Z,66.54
2022-11-03T19:55:05.616Z,66.56
2022-11-03T19:57:33.740Z,66.75
2022-11-03T20:00:01.886Z,66.71
2022-11-03T20:02:29.729Z,66.81
2022-11-03T20:04:58.027Z,67.09
2022-11-03T20:07:31.724Z,67.41
2022-11-03T20:10:01.160Z,67.55
2022-11-03T20:12:30.713Z,67.54
2022-11-03T20:14:58.672Z,67.53
2022-11-03T20:17:27.137Z,67.82
2022-11-03T20:19:54.848Z,68.06
2022-11-03T20:22:27.863Z,68.17
2022-11-03T20:24:59.334Z,68.39
2022-11-03T20:27:27.004Z,68.28
2022-11-03T20:29:54.687Z,68.45
2022-11-03T20:32:23.094Z,68.67
2022-11-03T20:34:51.042Z,68.44
2022-11-03T20:37:20.302Z,68.65
2022-11-03T20:39:49.920Z,68.58
2022-11-03T20:42:21.560Z,68.51
2022-11-03T20:44:50.658Z,68.72
2022-11-03T20:47:18.662Z,68.72
2022-11-03T20:49:46.797Z,68.80
2022-11-03T20:52:15.915Z,69.01
2022-11-03T20:54:44.378Z,68.67
2022-11-03T20:57:12.859Z,68.67
2022-11-03T20:59:41.903Z,68.55
2022-11-03T21:02:11.976Z,68.57
2022-11-03T21:04:41.691Z,68.62
2022-11-03T21:07:12.643Z,68.45
2022-11-03T21:09:40.326Z,68.42
2022-11-03T21:12:12.337Z,68.31
2022-11-03T21:15:03.014Z,67.97
2022-11-03T21:17:48.049Z,68.06
2022-11-03T21:20:15.945Z,68.17
2022-11-03T21:22:54.679Z,68.24
2022-11-03T21:25:24.642Z,68.60
2022-11-03T21:27:54.029Z,69.16
2022-11-03T21:30:25.224Z,69.74
2022-11-03T21:32:53.754Z,69.84
2022-11-03T21:35:22.861Z,70.07
2022-11-03T21:37:50.578Z,70.05
2022-11-03T21:40:18.696Z,70.18
2022-11-03T21:43:03.913Z,70.19
2022-11-03T21:45:32.966Z,70.67
2022-11-03T21:48:19.048Z,70.74
2022-11-03T21:50:48.117Z,70.37
2022-11-03T21:53:17.233Z,70.43
2022-11-03T21:55:47.316Z,69.70
2022-11-03T21:58:15.701Z,69.93
2022-11-03T22:00:46.988Z,70.02
2022-11-03T22:03:15.212Z,70.03
2022-11-03T22:05:42.868Z,69.92
2022-11-03T22:08:13.179Z,69.69
2022-11-03T22:10:41.255Z,69.85
2022-11-03T22:13:09.370Z,70.05
2022-11-03T22:16:00.057Z,70.23
2022-11-03T22:18:31.374Z,70.30
2022-11-03T22:21:16.426Z,70.40
2022-11-03T22:24:10.113Z,70.73
2022-11-03T22:26:55.267Z,70.42
2022-11-03T22:29:41.542Z,70.48
2022-11-03T22:32:14.489Z,70.44
2022-11-03T22:35:01.040Z,70.46
2022-11-03T22:40:13.692Z,70.15
2022-11-03T22:42:59.133Z,70.26
2022-11-03T22:45:43.595Z,70.18
2022-11-03T22:48:12.651Z,69.93
2022-11-03T22:50:41.723Z,70.05
2022-11-03T22:53:23.390Z,70.34
2022-11-03T22:55:51.098Z,70.14
2022-11-03T22:58:18.849Z,70.33
2022-11-03T23:00:47.542Z,70.45
2022-11-03T23:03:15.367Z,70.59
2022-11-03T23:05:44.356Z,70.36
2022-11-03T23:08:12.069Z,70.14
2022-11-03T23:10:39.821Z,69.94
2022-11-03T23:13:07.589Z,69.60
2022-11-03T23:15:35.464Z,69.56
2022-11-03T23:18:22.523Z,69.48
2022-11-03T23:21:09.771Z,69.70
2022-11-03T23:23:56.219Z,69.96
2022-11-03T23:26:25.480Z,70.82
2022-11-03T23:28:53.305Z,71.19
2022-11-03T23:31:21.012Z,70.95
2022-11-03T23:33:48.799Z,71.16
2022-11-03T23:36:18.764Z,70.91
2022-11-03T23:38:46.658Z,70.88
2022-11-03T23:41:16.296Z,70.86
2022-11-03T23:43:44.757Z,70.59
2022-11-03T23:46:30.981Z,70.37
2022-11-03T23:48:59.014Z,70.29
2022-11-03T23:51:29.430Z,70.42
2022-11-03T23:53:58.457Z,70.84
2022-11-03T23:56:54.568Z,71.23
2022-11-03T23:59:22.365Z,70.80
